Balasiha, Russia
Current Conditions -  °F | °C
As of 9:30 AM on Monday 24 Nov 2014 (Local Time) from UUEE Reporting Station
Haze Haze  
Wind Chill: 19°   Ceiling: 900
Heat Index: 27°   Visibility: 3mi
Dew Point: 27°   Wind: 7mph
Humidity: 100%   Direction: 100°E
Pressure: 30.65"   Gusts: NA
Location:  55.8°N, 37.95°E
Report Text: UUEE 240630Z 10003MPS 5000 BR OVC009 M03/M03 Q1038 0712005757120057 TEMPO -FZDZ
Loading
Personal Weather Stations






























Interactive Weather Map New forecast layout! Learn more

10-Day Weather Forecast

Advertisements
Track Severe Weather on mobile